createdAt,value
2023-05-05T00:01:33.362Z,67.32
2023-05-05T00:04:00.617Z,67.49
2023-05-05T00:06:31.531Z,66.96
2023-05-05T00:08:58.686Z,66.99
2023-05-05T00:11:26.308Z,67.25
2023-05-05T00:13:53.385Z,67.85
2023-05-05T00:16:20.539Z,67.95
2023-05-05T00:18:48.213Z,67.49
2023-05-05T00:21:15.917Z,67.71
2023-05-05T00:23:43.090Z,68.17
2023-05-05T00:26:10.113Z,68.15
2023-05-05T00:28:38.295Z,67.99
2023-05-05T00:31:05.776Z,67.88
2023-05-05T00:33:32.877Z,68.65
2023-05-05T00:35:59.928Z,68.54
2023-05-05T00:38:27.037Z,68.50
2023-05-05T00:40:54.110Z,68.94
2023-05-05T00:43:21.105Z,69.09
2023-05-05T00:45:53.348Z,68.95
2023-05-05T00:48:24.557Z,69.32
2023-05-05T00:50:52.123Z,68.75
2023-05-05T00:53:19.377Z,68.98
2023-05-05T00:55:46.793Z,69.15
2023-05-05T00:58:14.028Z,69.02
2023-05-05T01:00:41.183Z,69.18
2023-05-05T01:03:08.544Z,68.98
2023-05-05T01:05:52.037Z,68.59
2023-05-05T01:08:29.989Z,69.02
2023-05-05T01:11:05.417Z,69.08
2023-05-05T01:13:34.401Z,68.66
2023-05-05T01:16:08.385Z,68.81
2023-05-05T01:18:49.389Z,69.14
2023-05-05T01:21:40.546Z,68.86
2023-05-05T01:24:37.015Z,68.95
2023-05-05T01:27:18.817Z,68.67
2023-05-05T01:29:49.123Z,68.09
2023-05-05T01:32:20.140Z,68.29
2023-05-05T01:35:00.838Z,68.07
2023-05-05T01:37:51.965Z,68.70
2023-05-05T01:40:23.256Z,68.26
2023-05-05T01:42:51.495Z,68.16
2023-05-05T01:45:21.565Z,67.84
2023-05-05T01:47:49.331Z,68.09
2023-05-05T01:50:18.522Z,68.36
2023-05-05T01:52:46.095Z,67.61
2023-05-05T01:55:15.199Z,68.15
2023-05-05T01:57:43.104Z,68.22
2023-05-05T02:00:11.801Z,67.83
2023-05-05T02:02:44.726Z,68.20
2023-05-05T02:05:13.554Z,67.88
2023-05-05T02:07:41.838Z,67.67
2023-05-05T02:10:10.866Z,68.09
2023-05-05T02:12:37.963Z,67.99
2023-05-05T02:15:06.598Z,67.60
2023-05-05T02:17:33.735Z,68.08
2023-05-05T02:20:02.429Z,67.46
2023-05-05T02:22:29.513Z,67.73
2023-05-05T02:24:56.990Z,67.84
2023-05-05T02:27:25.121Z,68.09
2023-05-05T02:29:55.307Z,67.88
2023-05-05T02:32:41.680Z,68.02
2023-05-05T02:35:18.024Z,67.48
2023-05-05T02:38:00.262Z,67.89
2023-05-05T02:40:32.335Z,68.21
2023-05-05T02:43:06.849Z,67.58
2023-05-05T02:45:34.350Z,67.38
2023-05-05T02:48:05.083Z,67.51
2023-05-05T02:50:36.749Z,67.94
2023-05-05T02:53:13.981Z,67.28
2023-05-05T02:55:51.265Z,67.88
2023-05-05T02:58:34.779Z,67.45
2023-05-05T03:01:41.050Z,67.70
2023-05-05T03:04:15.849Z,67.82
2023-05-05T03:06:51.310Z,67.72
2023-05-05T03:09:26.817Z,67.96
2023-05-05T03:12:02.237Z,67.64
2023-05-05T03:14:36.591Z,67.57
2023-05-05T03:17:06.620Z,67.50
2023-05-05T03:19:35.890Z,67.15
2023-05-05T03:22:05.874Z,67.62
2023-05-05T03:24:33.889Z,67.12
2023-05-05T03:27:05.652Z,67.04
2023-05-05T03:29:37.080Z,66.89
2023-05-05T03:32:08.482Z,67.37
2023-05-05T03:34:37.577Z,67.21
2023-05-05T03:37:05.763Z,67.05
2023-05-05T03:39:33.115Z,66.96
2023-05-05T03:42:00.298Z,67.15
2023-05-05T03:44:31.379Z,66.79
2023-05-05T03:46:58.580Z,66.32
2023-05-05T03:49:26.178Z,66.87
2023-05-05T03:51:53.680Z,66.78
2023-05-05T03:54:20.821Z,66.53
2023-05-05T03:56:47.945Z,66.46
2023-05-05T03:59:15.043Z,66.15
2023-05-05T04:01:42.349Z,66.52
2023-05-05T04:04:09.911Z,66.01
2023-05-05T04:06:37.025Z,66.61
2023-05-05T04:09:04.291Z,66.31
2023-05-05T04:11:31.588Z,66.29
2023-05-05T04:13:59.004Z,65.97
2023-05-05T04:16:28.369Z,66.07
2023-05-05T04:18:56.459Z,66.04
2023-05-05T04:21:23.500Z,65.67
2023-05-05T04:23:50.842Z,65.53
2023-05-05T04:26:17.911Z,64.78
2023-05-05T04:28:46.449Z,65.10
2023-05-05T04:31:15.571Z,65.06
2023-05-05T04:33:44.285Z,64.84
2023-05-05T04:36:12.103Z,64.64
2023-05-05T04:38:39.256Z,64.79
2023-05-05T04:41:06.772Z,64.58
2023-05-05T04:43:35.319Z,64.86
2023-05-05T04:46:02.994Z,64.32
2023-05-05T04:48:34.531Z,64.44
2023-05-05T04:51:05.421Z,64.47
2023-05-05T04:53:33.213Z,64.10
2023-05-05T04:56:01.930Z,64.28
2023-05-05T04:58:29.498Z,64.29
2023-05-05T05:00:56.688Z,64.54
2023-05-05T05:03:24.057Z,63.97
2023-05-05T05:05:51.829Z,63.90
2023-05-05T05:08:19.835Z,64.23
2023-05-05T05:10:47.058Z,63.62
2023-05-05T05:13:14.233Z,64.30
2023-05-05T05:15:42.176Z,63.79
2023-05-05T05:18:09.252Z,63.85
2023-05-05T05:20:36.432Z,63.29
2023-05-05T05:23:04.714Z,63.48
2023-05-05T05:25:35.132Z,63.45
2023-05-05T05:28:10.019Z,63.60
2023-05-05T05:30:43.948Z,63.68
2023-05-05T05:33:11.998Z,63.47
2023-05-05T05:35:40.042Z,62.87
2023-05-05T05:38:07.666Z,62.68
2023-05-05T05:40:34.705Z,63.06
2023-05-05T05:43:03.277Z,63.20
2023-05-05T05:45:31.553Z,63.15
2023-05-05T05:47:58.909Z,63.12
2023-05-05T05:50:28.818Z,62.63
2023-05-05T05:52:57.241Z,62.61
2023-05-05T05:55:25.025Z,62.78
2023-05-05T05:57:53.044Z,62.88
2023-05-05T06:00:21.377Z,62.74
2023-05-05T06:02:55.882Z,62.29
2023-05-05T06:05:27.266Z,62.67
2023-05-05T06:07:54.974Z,62.26
2023-05-05T06:10:27.471Z,62.22
2023-05-05T06:13:02.000Z,62.41
2023-05-05T06:15:31.041Z,62.17
2023-05-05T06:17:59.092Z,61.99
2023-05-05T06:20:26.796Z,61.83
2023-05-05T06:22:54.518Z,61.80
2023-05-05T06:25:22.286Z,62.06
2023-05-05T06:27:50.673Z,61.76
2023-05-05T06:30:18.139Z,61.74
2023-05-05T06:32:45.328Z,61.97
2023-05-05T06:35:12.615Z,61.46
2023-05-05T06:37:39.891Z,61.67
2023-05-05T06:40:08.175Z,61.83
2023-05-05T06:42:36.172Z,61.50
2023-05-05T06:45:06.521Z,61.33
2023-05-05T06:47:33.803Z,61.67
2023-05-05T06:50:00.892Z,61.43
2023-05-05T06:52:27.997Z,61.32
2023-05-05T06:54:55.138Z,61.17
2023-05-05T06:57:22.257Z,61.33
2023-05-05T06:59:49.309Z,61.17
2023-05-05T07:02:16.395Z,60.96
2023-05-05T07:04:44.441Z,61.05
2023-05-05T07:07:11.460Z,60.88
2023-05-05T07:09:38.570Z,60.99
2023-05-05T07:12:06.077Z,60.68
2023-05-05T07:14:33.098Z,60.77
2023-05-05T07:17:00.252Z,60.73
2023-05-05T07:19:27.540Z,60.69
2023-05-05T07:21:54.657Z,60.94
2023-05-05T07:24:21.743Z,60.76
2023-05-05T07:26:48.956Z,60.91
2023-05-05T07:29:16.503Z,60.43
2023-05-05T07:31:43.649Z,60.82
2023-05-05T07:34:10.750Z,60.49
2023-05-05T07:36:38.180Z,60.77
2023-05-05T07:39:05.389Z,60.76
2023-05-05T07:41:32.507Z,60.46
2023-05-05T07:44:01.337Z,60.49
2023-05-05T07:46:28.411Z,60.34
2023-05-05T07:48:55.470Z,60.50
2023-05-05T07:51:22.826Z,60.30
2023-05-05T07:53:49.969Z,60.49
2023-05-05T07:56:17.029Z,60.28
2023-05-05T07:58:44.172Z,60.46
2023-05-05T08:01:12.958Z,60.75
2023-05-05T08:03:40.158Z,60.18
2023-05-05T08:06:10.728Z,59.99
2023-05-05T08:08:38.214Z,60.54
2023-05-05T08:11:06.804Z,60.05
2023-05-05T08:13:34.779Z,60.44
2023-05-05T08:16:02.086Z,60.17
2023-05-05T08:18:30.215Z,60.19
2023-05-05T08:20:57.513Z,60.49
2023-05-05T08:23:24.620Z,60.15
2023-05-05T08:25:52.567Z,59.91
2023-05-05T08:28:19.815Z,60.17
2023-05-05T08:30:47.408Z,60.18
2023-05-05T08:33:14.562Z,60.45
2023-05-05T08:35:42.659Z,60.50
2023-05-05T08:38:09.755Z,60.10
2023-05-05T08:40:38.546Z,60.30
2023-05-05T08:43:06.201Z,60.04
2023-05-05T08:45:33.617Z,60.15
2023-05-05T08:48:02.667Z,60.34
2023-05-05T08:50:30.915Z,59.87
2023-05-05T08:53:12.472Z,60.17
2023-05-05T08:55:55.607Z,60.24
2023-05-05T08:58:23.886Z,60.19
2023-05-05T09:00:51.285Z,59.92
2023-05-05T09:03:18.925Z,59.70
2023-05-05T09:05:46.000Z,59.79
2023-05-05T09:08:14.402Z,59.77
2023-05-05T09:10:42.444Z,59.82
2023-05-05T09:13:09.662Z,60.24
2023-05-05T09:15:39.207Z,59.83
2023-05-05T09:18:09.197Z,59.69
2023-05-05T09:20:38.331Z,59.98
2023-05-05T09:23:13.659Z,59.61
2023-05-05T09:25:42.848Z,59.40
2023-05-05T09:28:11.418Z,59.57
2023-05-05T09:30:40.154Z,59.76
2023-05-05T09:33:07.562Z,59.18
2023-05-05T09:35:54.430Z,59.48
2023-05-05T09:38:23.182Z,59.09
2023-05-05T09:40:51.559Z,59.46
2023-05-05T09:43:21.973Z,59.50
2023-05-05T09:45:50.357Z,59.03
2023-05-05T09:48:36.149Z,59.25
2023-05-05T09:51:03.488Z,59.24
2023-05-05T09:53:41.791Z,59.05
2023-05-05T09:56:09.226Z,58.86
2023-05-05T09:58:36.415Z,58.88
2023-05-05T10:01:03.662Z,58.73
2023-05-05T10:03:31.343Z,59.23
2023-05-05T10:06:01.237Z,59.12
2023-05-05T10:08:31.064Z,59.14
2023-05-05T10:11:04.774Z,58.69
2023-05-05T10:13:38.696Z,58.95
2023-05-05T10:16:09.415Z,58.74
2023-05-05T10:18:37.373Z,58.60
2023-05-05T10:21:05.175Z,58.61
2023-05-05T10:23:50.549Z,58.62
2023-05-05T10:26:19.765Z,58.57
2023-05-05T10:28:56.970Z,58.44
2023-05-05T10:31:48.388Z,58.23
2023-05-05T10:34:25.519Z,58.32
2023-05-05T10:36:53.827Z,58.42
2023-05-05T10:39:21.820Z,58.45
2023-05-05T10:41:49.503Z,58.24
2023-05-05T10:44:17.778Z,58.55
2023-05-05T10:46:45.582Z,58.04
2023-05-05T10:49:22.662Z,58.28
2023-05-05T10:51:49.708Z,58.15
2023-05-05T10:54:33.479Z,58.22
2023-05-05T10:57:05.026Z,58.02
2023-05-05T10:59:38.476Z,57.97
2023-05-05T11:02:36.359Z,57.75
2023-05-05T11:05:04.181Z,57.90
2023-05-05T11:07:31.570Z,57.72
2023-05-05T11:10:03.474Z,57.55
2023-05-05T11:12:31.341Z,57.65
2023-05-05T11:15:26.243Z,57.34
2023-05-05T11:18:05.804Z,57.45
2023-05-05T11:20:37.336Z,57.34
2023-05-05T11:23:04.804Z,57.26
2023-05-05T11:25:35.938Z,57.09
2023-05-05T11:28:14.776Z,57.17
2023-05-05T11:31:01.463Z,57.14
2023-05-05T11:33:29.460Z,56.89
2023-05-05T11:36:00.383Z,56.96
2023-05-05T11:38:40.077Z,56.44
2023-05-05T11:41:15.237Z,56.47
2023-05-05T11:43:42.587Z,56.46
2023-05-05T11:46:13.186Z,56.64
2023-05-05T11:48:46.736Z,56.76
2023-05-05T11:51:14.715Z,56.60
2023-05-05T11:53:49.315Z,56.60
2023-05-05T11:56:22.048Z,56.25
2023-05-05T11:58:50.098Z,56.04
2023-05-05T12:01:17.339Z,56.07
2023-05-05T12:03:46.098Z,56.02
2023-05-05T12:06:13.390Z,56.29
2023-05-05T12:08:41.596Z,56.15
2023-05-05T12:11:09.914Z,56.12
2023-05-05T12:13:37.060Z,55.75
2023-05-05T12:16:14.580Z,55.97
2023-05-05T12:18:42.173Z,55.85
2023-05-05T12:21:19.234Z,55.58
2023-05-05T12:23:46.822Z,55.37
2023-05-05T12:26:29.030Z,55.48
2023-05-05T12:28:56.593Z,55.71
2023-05-05T12:31:23.975Z,55.40
2023-05-05T12:33:52.278Z,55.69
2023-05-05T12:36:19.719Z,55.49
2023-05-05T12:38:46.797Z,55.49
2023-05-05T12:41:18.928Z,55.39
2023-05-05T12:43:47.704Z,55.34
2023-05-05T12:46:15.850Z,55.09
2023-05-05T12:48:48.288Z,55.15
2023-05-05T12:51:20.657Z,55.16
2023-05-05T12:53:49.789Z,54.80
2023-05-05T12:56:33.799Z,54.48
2023-05-05T12:59:03.324Z,55.00
2023-05-05T13:01:30.783Z,54.67
2023-05-05T13:04:04.851Z,54.50
2023-05-05T13:06:32.843Z,54.53
2023-05-05T13:08:59.984Z,54.46
2023-05-05T13:11:27.143Z,54.46
2023-05-05T13:13:54.219Z,54.59
2023-05-05T13:16:21.467Z,54.22
2023-05-05T13:18:50.071Z,54.13
2023-05-05T13:21:17.530Z,54.27
2023-05-05T13:23:47.929Z,54.29
2023-05-05T13:26:15.053Z,54.14
2023-05-05T13:28:42.432Z,54.11
2023-05-05T13:31:09.579Z,54.35
2023-05-05T13:33:37.134Z,53.79
2023-05-05T13:36:04.842Z,53.98
2023-05-05T13:38:33.289Z,53.84
2023-05-05T13:41:00.563Z,53.67
2023-05-05T13:43:27.620Z,53.65
2023-05-05T13:45:55.960Z,53.59
2023-05-05T13:48:27.620Z,53.91
2023-05-05T13:50:54.698Z,53.63
2023-05-05T13:53:21.922Z,53.79
2023-05-05T13:55:48.991Z,53.37
2023-05-05T13:58:16.012Z,53.88
2023-05-05T14:00:43.178Z,53.75
2023-05-05T14:03:10.184Z,53.70
2023-05-05T14:05:38.964Z,53.47
2023-05-05T14:08:06.018Z,53.41
2023-05-05T14:10:33.120Z,53.66
2023-05-05T14:13:00.677Z,53.44
2023-05-05T14:15:27.983Z,53.52
2023-05-05T14:17:55.373Z,53.34
2023-05-05T14:20:22.877Z,53.37
2023-05-05T14:22:50.764Z,53.46
2023-05-05T14:25:18.135Z,53.03
2023-05-05T14:27:45.230Z,53.38
2023-05-05T14:30:12.704Z,52.94
2023-05-05T14:32:39.730Z,53.01
2023-05-05T14:35:07.906Z,53.04
2023-05-05T14:37:35.161Z,53.30
2023-05-05T14:40:04.393Z,52.67
2023-05-05T14:42:32.822Z,52.76
2023-05-05T14:44:59.987Z,52.63
2023-05-05T14:47:41.936Z,53.11
2023-05-05T14:50:10.110Z,52.68
2023-05-05T14:52:39.494Z,52.92
2023-05-05T14:55:07.764Z,52.39
2023-05-05T14:57:35.210Z,52.98
2023-05-05T15:00:02.262Z,52.67
2023-05-05T15:02:29.439Z,52.74
2023-05-05T15:04:56.587Z,52.33
2023-05-05T15:07:28.643Z,52.39
2023-05-05T15:09:56.740Z,52.68
2023-05-05T15:12:23.898Z,52.50
2023-05-05T15:14:51.030Z,52.20
2023-05-05T15:17:18.147Z,52.63
2023-05-05T15:19:45.160Z,52.09
2023-05-05T15:22:12.258Z,52.35
2023-05-05T15:24:39.384Z,52.11
2023-05-05T15:27:06.604Z,51.98
2023-05-05T15:29:33.699Z,52.20
2023-05-05T15:32:01.359Z,52.19
2023-05-05T15:34:28.472Z,51.93
2023-05-05T15:36:55.578Z,51.82
2023-05-05T15:39:22.635Z,52.03
2023-05-05T15:41:49.700Z,51.83
2023-05-05T15:44:16.873Z,52.30
2023-05-05T15:46:43.919Z,52.47
2023-05-05T15:49:10.955Z,52.03
2023-05-05T15:51:38.092Z,52.03
2023-05-05T15:54:05.692Z,52.11
2023-05-05T15:56:33.317Z,52.02
2023-05-05T15:59:00.416Z,52.03
2023-05-05T16:01:27.619Z,52.04
2023-05-05T16:03:54.737Z,51.94
2023-05-05T16:06:22.320Z,51.76
2023-05-05T16:08:51.884Z,52.11
2023-05-05T16:11:21.820Z,51.68
2023-05-05T16:13:59.567Z,51.78
2023-05-05T16:17:03.056Z,52.21
2023-05-05T16:19:33.504Z,52.20
2023-05-05T16:22:02.897Z,51.84
2023-05-05T16:24:29.927Z,51.80
2023-05-05T16:26:57.020Z,51.98
2023-05-05T16:29:25.333Z,52.16
2023-05-05T16:31:52.440Z,52.25
2023-05-05T16:34:19.693Z,51.93
2023-05-05T16:36:46.807Z,51.84
2023-05-05T16:39:13.997Z,52.21
2023-05-05T16:41:41.399Z,52.51
2023-05-05T16:44:08.489Z,52.29
2023-05-05T16:46:37.591Z,52.13
2023-05-05T16:49:04.874Z,52.16
2023-05-05T16:51:32.017Z,52.34
2023-05-05T16:53:59.072Z,52.46
2023-05-05T16:56:26.357Z,52.58
2023-05-05T16:58:53.489Z,52.87
2023-05-05T17:01:20.557Z,52.69
2023-05-05T17:03:47.676Z,52.79
2023-05-05T17:06:14.738Z,52.56
2023-05-05T17:08:42.022Z,52.75
2023-05-05T17:11:11.536Z,53.10
2023-05-05T17:13:38.987Z,53.22
2023-05-05T17:16:06.759Z,53.17
2023-05-05T17:18:33.859Z,53.33
2023-05-05T17:21:00.959Z,53.62
2023-05-05T17:23:28.007Z,53.60
2023-05-05T17:25:55.187Z,53.57
2023-05-05T17:28:22.633Z,53.80
2023-05-05T17:30:49.623Z,54.05
2023-05-05T17:33:20.960Z,54.04
2023-05-05T17:35:48.455Z,54.25
2023-05-05T17:38:15.951Z,54.04
2023-05-05T17:40:43.425Z,54.41
2023-05-05T17:43:10.409Z,54.09
2023-05-05T17:45:37.534Z,54.30
2023-05-05T17:48:05.128Z,54.32
2023-05-05T17:50:32.185Z,54.72
2023-05-05T17:52:59.187Z,55.00
2023-05-05T17:55:26.605Z,55.15
2023-05-05T17:57:53.631Z,54.77
2023-05-05T18:00:21.256Z,55.21
2023-05-05T18:02:48.397Z,55.06
2023-05-05T18:05:15.530Z,55.10
2023-05-05T18:07:42.666Z,55.58
2023-05-05T18:10:10.958Z,55.36
2023-05-05T18:12:38.971Z,55.69
2023-05-05T18:15:08.299Z,55.85
2023-05-05T18:17:35.800Z,55.97
2023-05-05T18:20:03.270Z,55.80
2023-05-05T18:22:30.493Z,55.88
2023-05-05T18:24:59.286Z,56.19
2023-05-05T18:27:27.722Z,56.39
2023-05-05T18:29:55.383Z,56.65
2023-05-05T18:32:22.877Z,56.63
2023-05-05T18:34:50.253Z,56.90
2023-05-05T18:37:17.332Z,56.86
2023-05-05T18:39:45.309Z,57.20
2023-05-05T18:42:13.227Z,57.41
2023-05-05T18:44:40.405Z,57.45
2023-05-05T18:47:08.155Z,57.61
2023-05-05T18:49:35.581Z,57.90
2023-05-05T18:52:02.657Z,58.09
2023-05-05T18:54:29.698Z,58.30
2023-05-05T18:56:56.838Z,58.33
2023-05-05T18:59:24.137Z,58.29
2023-05-05T19:01:51.541Z,58.45
2023-05-05T19:04:30.250Z,58.60
2023-05-05T19:06:58.145Z,59.02
2023-05-05T19:09:25.468Z,58.96
2023-05-05T19:11:52.865Z,59.15
2023-05-05T19:14:20.249Z,59.10
2023-05-05T19:16:47.725Z,59.31
2023-05-05T19:19:15.057Z,59.74
2023-05-05T19:21:42.577Z,59.75
2023-05-05T19:24:09.982Z,59.84
2023-05-05T19:26:37.583Z,60.26
2023-05-05T19:29:05.034Z,60.22
2023-05-05T19:31:32.354Z,60.41
2023-05-05T19:34:04.591Z,60.27
2023-05-05T19:36:32.409Z,60.65
2023-05-05T19:39:04.674Z,60.96
2023-05-05T19:41:32.006Z,61.30
2023-05-05T19:43:59.062Z,61.52
2023-05-05T19:46:26.713Z,61.42
2023-05-05T19:48:54.012Z,61.61
2023-05-05T19:51:21.068Z,61.80
2023-05-05T19:53:48.199Z,62.18
2023-05-05T19:56:15.232Z,62.18
2023-05-05T19:58:59.715Z,62.28
2023-05-05T20:01:28.072Z,62.44
2023-05-05T20:03:56.591Z,62.62
2023-05-05T20:06:24.214Z,62.78
2023-05-05T20:08:51.624Z,63.24
2023-05-05T20:11:19.936Z,62.91
2023-05-05T20:13:47.634Z,63.03
2023-05-05T20:16:15.637Z,63.22
2023-05-05T20:18:45.133Z,63.30
2023-05-05T20:21:15.264Z,63.50
2023-05-05T20:23:43.101Z,63.62
2023-05-05T20:26:10.327Z,63.68
2023-05-05T20:28:40.013Z,64.13
2023-05-05T20:31:11.259Z,63.93
2023-05-05T20:33:38.399Z,64.36
2023-05-05T20:36:05.904Z,64.56
2023-05-05T20:38:33.163Z,64.58
2023-05-05T20:41:00.180Z,64.70
2023-05-05T20:43:27.388Z,64.93
2023-05-05T20:45:54.549Z,65.17
2023-05-05T20:48:21.574Z,65.22
2023-05-05T20:50:48.641Z,65.82
2023-05-05T20:53:19.076Z,65.68
2023-05-05T20:55:46.238Z,65.81
2023-05-05T20:58:13.367Z,66.04
2023-05-05T21:00:40.506Z,66.30
2023-05-05T21:03:07.665Z,66.32
2023-05-05T21:05:35.786Z,66.72
2023-05-05T21:08:02.978Z,66.78
2023-05-05T21:10:32.355Z,66.79
2023-05-05T21:13:00.432Z,66.91
2023-05-05T21:15:27.781Z,67.12
2023-05-05T21:17:55.371Z,67.31
2023-05-05T21:20:22.433Z,67.35
2023-05-05T21:22:49.604Z,67.31
2023-05-05T21:25:19.205Z,67.71
2023-05-05T21:27:47.277Z,68.00
2023-05-05T21:30:15.063Z,67.92
2023-05-05T21:32:42.469Z,68.29
2023-05-05T21:35:10.411Z,68.20
2023-05-05T21:37:39.385Z,68.40
2023-05-05T21:40:14.002Z,68.48
2023-05-05T21:42:42.341Z,68.80
2023-05-05T21:45:11.123Z,68.92
2023-05-05T21:47:38.256Z,69.03
2023-05-05T21:50:06.097Z,69.06
2023-05-05T21:52:33.219Z,69.23
2023-05-05T21:55:00.263Z,69.42
2023-05-05T21:57:27.373Z,69.59
2023-05-05T21:59:54.468Z,69.76
2023-05-05T22:02:21.532Z,69.67
2023-05-05T22:04:51.532Z,69.98
2023-05-05T22:07:18.739Z,70.12
2023-05-05T22:09:46.177Z,70.25
2023-05-05T22:12:13.458Z,70.41
2023-05-05T22:14:40.638Z,70.47
2023-05-05T22:17:08.107Z,70.49
2023-05-05T22:19:35.146Z,70.67
2023-05-05T22:22:02.905Z,70.88
2023-05-05T22:24:30.292Z,70.84
2023-05-05T22:26:57.614Z,71.05
2023-05-05T22:29:25.386Z,71.18
2023-05-05T22:31:52.942Z,71.16
2023-05-05T22:34:22.370Z,71.50
2023-05-05T22:36:50.005Z,71.47
2023-05-05T22:39:18.772Z,71.67
2023-05-05T22:41:45.849Z,71.97
2023-05-05T22:44:13.014Z,72.06
2023-05-05T22:46:40.364Z,72.31
2023-05-05T22:49:07.553Z,72.23
2023-05-05T22:51:34.873Z,72.29
2023-05-05T22:54:02.145Z,72.60
2023-05-05T22:56:29.193Z,72.51
2023-05-05T22:58:56.278Z,72.78
2023-05-05T23:01:23.991Z,72.79
2023-05-05T23:03:51.128Z,72.96
2023-05-05T23:06:18.355Z,73.18
2023-05-05T23:08:46.948Z,73.19
2023-05-05T23:11:14.189Z,73.25
2023-05-05T23:13:41.815Z,73.39
2023-05-05T23:16:09.221Z,73.68
2023-05-05T23:18:36.751Z,73.67
2023-05-05T23:21:03.914Z,73.75
2023-05-05T23:23:31.336Z,73.96
2023-05-05T23:25:58.398Z,74.01
2023-05-05T23:28:25.417Z,74.22
2023-05-05T23:30:52.598Z,74.12
2023-05-05T23:33:19.872Z,74.39
2023-05-05T23:35:47.099Z,74.44
2023-05-05T23:38:14.183Z,74.32
2023-05-05T23:40:41.367Z,74.70
2023-05-05T23:43:08.795Z,74.89
2023-05-05T23:45:35.845Z,74.66
2023-05-05T23:48:03.025Z,74.78
2023-05-05T23:50:30.595Z,74.88
2023-05-05T23:52:57.619Z,75.23
2023-05-05T23:55:24.898Z,74.99
2023-05-05T23:57:53.333Z,75.42
